createdAt,value
2022-12-18T00:00:43.871Z,73.28
2022-12-18T00:03:11.254Z,77.20
2022-12-18T00:05:38.563Z,66.53
2022-12-18T00:08:09.238Z,83.50
2022-12-18T00:10:36.816Z,73.32
2022-12-18T00:13:06.696Z,77.88
2022-12-18T00:15:37.127Z,76.25
2022-12-18T00:18:04.993Z,75.35
2022-12-18T00:20:32.157Z,76.97
2022-12-18T00:22:59.399Z,68.70
2022-12-18T00:25:26.563Z,76.93
2022-12-18T00:27:53.752Z,84.22
2022-12-18T00:30:20.974Z,75.93
2022-12-18T00:32:48.219Z,75.85
2022-12-18T00:35:15.361Z,73.60
2022-12-18T00:37:42.690Z,76.13
2022-12-18T00:40:09.898Z,76.53
2022-12-18T00:42:56.525Z,75.43
2022-12-18T00:45:25.537Z,70.22
2022-12-18T00:47:52.820Z,84.72
2022-12-18T00:50:20.064Z,70.57
2022-12-18T00:52:47.221Z,74.97
2022-12-18T00:55:14.451Z,80.65
2022-12-18T00:57:41.781Z,75.13
2022-12-18T01:00:09.019Z,69.10
2022-12-18T01:02:36.269Z,70.43
2022-12-18T01:05:03.593Z,77.43
2022-12-18T01:07:30.862Z,75.35
2022-12-18T01:09:59.205Z,67.53
2022-12-18T01:12:27.283Z,66.32
2022-12-18T01:14:54.515Z,66.18
2022-12-18T01:17:21.695Z,70.80
2022-12-18T01:19:48.917Z,59.70
2022-12-18T01:22:16.115Z,66.65
2022-12-18T01:24:43.283Z,67.57
2022-12-18T01:27:10.523Z,62.42
2022-12-18T01:29:37.880Z,58.80
2022-12-18T01:32:05.101Z,63.80
2022-12-18T01:34:32.436Z,60.60
2022-12-18T01:36:59.625Z,59.15
2022-12-18T01:39:27.119Z,65.22
2022-12-18T01:42:03.697Z,55.95
2022-12-18T01:44:30.984Z,57.53
2022-12-18T01:46:58.155Z,63.38
2022-12-18T01:49:25.407Z,56.20
2022-12-18T01:51:52.560Z,61.17
2022-12-18T01:54:20.075Z,61.92
2022-12-18T01:56:47.628Z,54.83
2022-12-18T01:59:14.882Z,55.03
2022-12-18T02:01:42.128Z,61.13
2022-12-18T02:04:10.103Z,55.13
2022-12-18T02:06:38.452Z,56.30
2022-12-18T02:09:05.851Z,59.90
2022-12-18T02:11:33.067Z,56.55
2022-12-18T02:14:00.258Z,59.70
2022-12-18T02:16:28.262Z,51.30
2022-12-18T02:18:55.470Z,53.20
2022-12-18T02:21:22.943Z,49.80
2022-12-18T04:34:54.943Z,53.35
2022-12-18T04:37:22.371Z,58.97
2022-12-18T04:39:51.039Z,49.30
2022-12-18T04:42:25.490Z,53.15
2022-12-18T04:44:52.718Z,49.80
2022-12-18T04:47:19.909Z,55.72
2022-12-18T04:49:47.184Z,44.85
2022-12-18T04:52:14.357Z,60.35
2022-12-18T04:54:41.569Z,59.97
2022-12-18T04:57:08.796Z,60.50
2022-12-18T04:59:36.033Z,63.35
2022-12-18T05:02:03.403Z,60.00
2022-12-18T05:04:30.771Z,61.63
2022-12-18T05:06:57.940Z,49.38
2022-12-18T05:09:25.224Z,58.60
2022-12-18T05:11:52.456Z,69.10
2022-12-18T05:14:19.687Z,64.88
2022-12-18T05:16:46.870Z,65.43
2022-12-18T05:19:14.120Z,68.28
2022-12-18T05:21:41.549Z,68.38
2022-12-18T05:24:08.859Z,70.30
2022-12-18T05:26:36.072Z,72.22
2022-12-18T05:29:03.309Z,70.93
2022-12-18T05:31:33.446Z,45.75
2022-12-18T05:34:03.234Z,63.55
2022-12-18T05:36:30.404Z,66.10
2022-12-18T05:38:57.672Z,79.57
2022-12-18T05:41:24.890Z,65.32
2022-12-18T05:43:52.130Z,76.85
2022-12-18T05:46:19.348Z,66.60
2022-12-18T05:48:46.702Z,65.15
2022-12-18T05:51:13.873Z,67.05
2022-12-18T05:53:41.526Z,71.93
2022-12-18T05:56:08.845Z,72.80
2022-12-18T05:58:36.100Z,70.68
2022-12-18T06:01:03.342Z,64.97
2022-12-18T06:03:33.904Z,70.22
2022-12-18T06:06:01.498Z,70.80
2022-12-18T06:08:28.867Z,83.03
2022-12-18T06:10:56.161Z,66.15
2022-12-18T06:13:23.348Z,61.10
2022-12-18T06:15:50.614Z,69.60
2022-12-18T06:18:17.877Z,65.35
2022-12-18T06:20:45.080Z,73.68
2022-12-18T06:23:12.628Z,67.30
2022-12-18T06:25:40.001Z,73.45
2022-12-18T06:28:07.218Z,61.55
2022-12-18T06:30:34.631Z,71.90
2022-12-18T06:33:01.874Z,60.97
2022-12-18T06:35:29.073Z,66.97
2022-12-18T06:37:56.353Z,62.30
2022-12-18T06:40:23.587Z,67.78
2022-12-18T06:42:51.344Z,78.82
2022-12-18T06:45:18.610Z,69.95
2022-12-18T06:47:45.851Z,65.38
2022-12-18T06:50:13.146Z,54.95
2022-12-18T06:52:41.239Z,61.10
2022-12-18T06:55:09.132Z,66.13
2022-12-18T06:57:36.339Z,68.35
2022-12-18T07:00:03.899Z,65.25
2022-12-18T07:02:31.224Z,60.67
2022-12-18T07:04:58.452Z,80.78
2022-12-18T07:07:25.631Z,63.58
2022-12-18T07:09:52.845Z,57.70
2022-12-18T07:12:20.099Z,60.55
2022-12-18T07:14:47.274Z,67.03
2022-12-18T07:17:14.509Z,68.05
2022-12-18T07:19:41.660Z,59.17
2022-12-18T07:22:08.832Z,66.07
2022-12-18T07:24:36.255Z,66.25
2022-12-18T07:27:03.591Z,62.13
2022-12-18T07:29:31.150Z,68.05
2022-12-18T07:31:58.459Z,67.55
2022-12-18T07:34:25.899Z,60.20
2022-12-18T07:36:53.132Z,63.30
2022-12-18T07:39:20.361Z,60.78
2022-12-18T07:42:07.545Z,54.10
2022-12-18T07:44:34.833Z,59.03
2022-12-18T07:47:01.976Z,58.95
2022-12-18T07:49:29.187Z,59.72
2022-12-18T07:51:56.351Z,66.97
2022-12-18T07:54:23.902Z,62.05
2022-12-18T07:56:51.051Z,66.72
2022-12-18T09:28:06.317Z,70.13
2022-12-18T09:30:35.136Z,69.65
2022-12-18T09:35:30.250Z,67.70
2022-12-18T09:37:57.478Z,60.55
2022-12-18T09:40:24.705Z,72.00
2022-12-18T09:42:51.873Z,73.40
2022-12-18T09:45:19.098Z,67.60
2022-12-18T09:47:46.246Z,56.88
2022-12-18T09:50:17.265Z,57.45
2022-12-18T09:52:44.802Z,54.05
2022-12-18T09:55:11.969Z,71.70
2022-12-18T09:57:39.384Z,62.65
2022-12-18T10:00:06.551Z,50.35
2022-12-18T10:02:38.968Z,58.22
2022-12-18T10:05:06.461Z,54.55
2022-12-18T10:07:33.651Z,60.90
2022-12-18T10:10:00.984Z,55.28
2022-12-18T10:12:28.179Z,56.72
2022-12-18T10:14:55.398Z,53.10
2022-12-18T10:17:22.586Z,53.05
2022-12-18T10:19:50.293Z,57.28
2022-12-18T10:22:18.177Z,61.50
2022-12-18T10:24:45.408Z,63.08
2022-12-18T10:27:12.604Z,56.13
2022-12-18T10:29:40.120Z,63.72
2022-12-18T10:32:07.430Z,40.63
2022-12-18T10:34:34.991Z,57.40
2022-12-18T10:37:02.249Z,53.13
2022-12-18T10:39:29.521Z,47.25
2022-12-18T10:41:56.691Z,52.15
2022-12-18T10:44:24.000Z,54.33
2022-12-18T10:46:51.264Z,58.17
2022-12-18T10:49:18.503Z,57.30
2022-12-18T10:51:45.709Z,57.67
2022-12-18T10:54:13.151Z,49.80
2022-12-18T10:56:40.501Z,62.58
2022-12-18T10:59:08.500Z,54.10
2022-12-18T11:01:35.784Z,57.08
2022-12-18T11:04:03.233Z,61.97
2022-12-18T11:06:30.467Z,62.08
2022-12-18T11:08:57.756Z,69.25
2022-12-18T11:11:24.952Z,66.68
2022-12-18T11:13:52.193Z,59.22
2022-12-18T11:16:19.382Z,62.13
2022-12-18T11:18:47.277Z,61.20
2022-12-18T11:21:14.557Z,64.25
2022-12-18T11:23:41.826Z,60.28
2022-12-18T11:26:09.344Z,75.00
2022-12-18T11:28:37.117Z,72.20
2022-12-18T11:31:04.497Z,64.53
2022-12-18T11:33:31.834Z,63.78
2022-12-18T11:35:59.001Z,89.88
2022-12-18T11:38:26.623Z,73.80
2022-12-18T11:40:53.841Z,81.00
2022-12-18T11:43:21.053Z,70.03
2022-12-18T11:45:48.274Z,75.25
2022-12-18T11:48:15.581Z,64.03
2022-12-18T11:50:43.839Z,67.25
2022-12-18T11:53:11.236Z,65.05
2022-12-18T11:55:38.734Z,78.32
2022-12-18T11:58:05.936Z,81.15
2022-12-18T12:00:33.242Z,76.35
2022-12-18T12:03:00.704Z,56.25
2022-12-18T12:05:27.947Z,64.68
2022-12-18T12:07:56.304Z,82.07
2022-12-18T12:10:23.455Z,78.55
2022-12-18T12:12:51.176Z,65.90
2022-12-18T12:15:18.373Z,78.75
2022-12-18T12:17:45.625Z,77.35
2022-12-18T12:20:12.810Z,68.22
2022-12-18T12:22:40.150Z,81.00
2022-12-18T12:25:10.249Z,74.80
2022-12-18T12:27:37.634Z,66.50
2022-12-18T12:30:05.819Z,58.80
2022-12-18T12:32:35.655Z,71.22
2022-12-18T12:35:09.289Z,58.28
2022-12-18T12:37:36.965Z,50.75
2022-12-18T12:40:15.218Z,60.67
2022-12-18T12:43:10.110Z,71.05
2022-12-18T12:45:37.636Z,76.38
2022-12-18T12:48:04.935Z,58.70
2022-12-18T12:50:33.189Z,69.05
2022-12-18T12:53:00.441Z,64.70
2022-12-18T12:55:27.733Z,72.53
2022-12-18T12:57:54.940Z,76.25
2022-12-18T13:00:23.234Z,66.82
2022-12-18T13:02:50.620Z,63.40
2022-12-18T13:05:20.490Z,70.63
2022-12-18T13:07:47.832Z,70.45
2022-12-18T13:13:02.386Z,62.80
2022-12-18T13:13:44.928Z,59.95
2022-12-18T13:15:30.585Z,64.20
2022-12-18T13:17:59.528Z,64.25
2022-12-18T13:20:26.752Z,61.67
2022-12-18T13:22:56.449Z,56.22
2022-12-18T13:25:23.973Z,73.60
2022-12-18T13:27:51.332Z,51.42
2022-12-18T13:30:19.065Z,58.05
2022-12-18T13:32:46.560Z,66.45
2022-12-18T13:35:14.320Z,64.65
2022-12-18T13:37:41.899Z,57.05
2022-12-18T13:40:09.932Z,57.95
2022-12-18T13:42:56.380Z,50.58
2022-12-18T13:45:23.693Z,54.47
2022-12-18T13:47:51.081Z,51.92
2022-12-18T13:50:18.552Z,58.78
2022-12-18T13:52:46.584Z,46.60
2022-12-18T13:55:14.060Z,44.78
2022-12-18T13:57:41.827Z,48.95
2022-12-18T14:00:09.321Z,41.97
2022-12-18T14:02:36.584Z,49.50
2022-12-18T14:05:04.127Z,52.53
2022-12-18T14:07:37.976Z,40.65
2022-12-18T14:10:41.283Z,43.83
2022-12-18T14:12:57.622Z,33.47
2022-12-18T14:15:28.187Z,46.85
2022-12-18T14:17:55.408Z,49.80
2022-12-18T14:20:22.563Z,41.42
2022-12-18T14:22:49.806Z,45.17
2022-12-18T14:25:19.639Z,54.22
2022-12-18T14:27:46.846Z,44.47
2022-12-18T14:30:14.097Z,51.47
2022-12-18T14:32:41.387Z,42.97
2022-12-18T14:35:10.850Z,57.65
2022-12-18T14:37:38.044Z,51.80
2022-12-18T14:40:10.889Z,47.65
2022-12-18T14:42:38.734Z,36.47
2022-12-18T14:45:13.983Z,40.55
2022-12-18T14:47:41.878Z,41.40
2022-12-18T14:50:09.085Z,46.95
2022-12-18T14:52:36.467Z,47.65
2022-12-18T14:55:03.690Z,57.45
2022-12-18T14:57:30.971Z,42.40
2022-12-18T14:59:58.182Z,56.00
2022-12-18T15:02:25.621Z,56.30
2022-12-18T15:04:54.441Z,43.83
2022-12-18T15:07:21.635Z,42.75
2022-12-18T15:09:48.996Z,43.95
2022-12-18T15:12:16.183Z,38.75
2022-12-18T15:14:43.724Z,37.05
2022-12-18T15:17:10.919Z,42.80
2022-12-18T15:19:38.169Z,83.22
2022-12-18T15:22:06.850Z,43.63
2022-12-18T15:24:34.338Z,39.15
2022-12-18T15:27:01.596Z,36.92
2022-12-18T15:29:28.809Z,39.85
2022-12-18T15:31:56.036Z,30.40
2022-12-18T15:34:23.468Z,40.38
2022-12-18T15:36:50.634Z,33.03
2022-12-18T15:39:17.928Z,33.88
2022-12-18T15:42:05.184Z,34.25
2022-12-18T15:44:32.470Z,32.65
2022-12-18T15:46:59.626Z,29.38
2022-12-18T15:49:27.015Z,28.88
2022-12-18T15:51:54.463Z,29.02
2022-12-18T15:54:41.825Z,31.23
2022-12-18T15:57:24.404Z,34.10
2022-12-18T15:59:51.737Z,32.70
2022-12-18T16:02:19.388Z,31.88
2022-12-18T16:04:49.675Z,29.00
2022-12-18T16:07:18.164Z,23.70
2022-12-18T16:09:52.372Z,22.45
2022-12-18T16:12:19.812Z,21.60
2022-12-18T16:14:47.085Z,26.58
2022-12-18T16:17:14.986Z,23.67
2022-12-18T16:19:42.270Z,23.98
2022-12-18T16:22:09.501Z,22.83
2022-12-18T16:24:37.575Z,21.20
2022-12-18T16:27:05.553Z,24.60
2022-12-18T16:29:32.708Z,19.52
2022-12-18T16:31:59.977Z,14.90
2022-12-18T16:34:29.174Z,18.45
2022-12-18T16:37:03.135Z,28.52
2022-12-18T16:39:32.966Z,10.05
2022-12-18T16:42:00.200Z,13.90
2022-12-18T16:44:29.825Z,15.85
2022-12-18T16:47:02.716Z,17.05
2022-12-18T16:49:30.045Z,9.40
2022-12-18T16:51:57.293Z,13.50
2022-12-18T16:54:24.585Z,14.20
2022-12-18T16:56:52.249Z,13.90
2022-12-18T16:59:19.455Z,11.77
2022-12-18T17:01:47.406Z,16.63
2022-12-18T17:04:14.844Z,15.90
2022-12-18T17:06:42.208Z,15.35
2022-12-18T17:09:09.720Z,33.40
2022-12-18T17:11:37.022Z,21.48
2022-12-18T17:14:04.286Z,12.68
2022-12-18T17:16:31.579Z,17.35
2022-12-18T17:18:59.407Z,15.02
2022-12-18T17:21:26.564Z,17.05
2022-12-18T17:23:53.795Z,16.23
2022-12-18T17:26:20.979Z,17.05
2022-12-18T17:28:48.241Z,22.63
2022-12-18T17:31:15.493Z,19.67
2022-12-18T17:33:43.363Z,15.75
2022-12-18T17:36:10.892Z,14.98
2022-12-18T17:38:38.204Z,16.70
2022-12-18T17:41:05.461Z,14.15
2022-12-18T17:43:35.430Z,20.98
2022-12-18T17:46:02.727Z,14.40
2022-12-18T17:48:31.021Z,14.45
2022-12-18T17:50:58.320Z,22.58
2022-12-18T17:53:27.340Z,17.52
2022-12-18T17:55:54.977Z,13.77
2022-12-18T17:58:22.184Z,14.32
2022-12-18T18:00:49.462Z,13.02
2022-12-18T18:03:16.949Z,13.70
2022-12-18T18:05:44.500Z,14.48
2022-12-18T18:08:11.822Z,14.75
2022-12-18T18:10:39.136Z,14.02
2022-12-18T18:13:25.026Z,19.30
2022-12-18T18:15:52.327Z,13.63
2022-12-18T18:18:19.526Z,11.52
2022-12-18T18:20:49.087Z,10.90
2022-12-18T18:23:16.391Z,9.73
2022-12-18T18:25:43.610Z,9.68
2022-12-18T18:28:10.794Z,13.20
2022-12-18T18:30:38.122Z,13.68
2022-12-18T18:33:11.683Z,21.08
2022-12-18T18:35:54.925Z,12.30
2022-12-18T18:38:22.388Z,10.40
2022-12-18T18:40:49.683Z,12.27
2022-12-18T18:43:16.889Z,11.88
2022-12-18T18:45:44.159Z,13.43
2022-12-18T18:48:14.109Z,12.85
2022-12-18T18:50:44.034Z,11.48
2022-12-18T18:53:11.265Z,12.48
2022-12-18T18:55:38.721Z,12.98
2022-12-18T18:58:06.299Z,13.75
2022-12-18T19:00:34.349Z,11.50
2022-12-18T19:03:02.040Z,13.90
2022-12-18T19:05:29.285Z,7.75
2022-12-18T19:07:56.746Z,10.90
2022-12-18T19:10:23.933Z,16.30
2022-12-18T19:13:10.000Z,12.73
2022-12-18T19:15:37.434Z,9.30
2022-12-18T19:18:04.842Z,13.82
2022-12-18T19:20:32.028Z,14.93
2022-12-18T19:22:59.292Z,9.50
2022-12-18T19:25:40.191Z,10.75
2022-12-18T19:28:08.304Z,9.45
2022-12-18T19:30:44.616Z,9.32
2022-12-18T19:33:42.026Z,11.27
2022-12-18T19:35:59.025Z,12.85
2022-12-18T19:38:26.212Z,10.43
2022-12-18T19:40:54.869Z,15.77
2022-12-18T19:43:23.024Z,11.13
2022-12-18T19:45:50.170Z,13.68
2022-12-18T19:48:17.396Z,14.38
2022-12-18T19:50:44.679Z,13.25
2022-12-18T19:53:11.914Z,10.38
2022-12-18T19:55:39.069Z,10.68
2022-12-18T19:58:08.728Z,11.10
2022-12-18T20:00:36.002Z,17.65
2022-12-18T20:03:12.861Z,17.50
2022-12-18T20:05:45.627Z,9.23
2022-12-18T20:08:13.003Z,9.60
2022-12-18T20:10:40.783Z,14.55
2022-12-18T20:13:08.560Z,12.32
2022-12-18T20:15:38.197Z,12.00
2022-12-18T20:18:10.721Z,10.48
2022-12-18T20:20:39.211Z,14.82
2022-12-18T20:23:07.538Z,13.65
2022-12-18T20:25:34.756Z,17.60
2022-12-18T20:28:01.990Z,20.35
2022-12-18T20:30:29.163Z,18.25
2022-12-18T20:32:56.446Z,15.43
2022-12-18T20:35:26.620Z,18.10
2022-12-18T20:37:55.640Z,16.20
2022-12-18T20:40:23.687Z,16.42
2022-12-18T20:42:50.911Z,19.67
2022-12-18T20:45:19.548Z,12.40
2022-12-18T20:47:46.820Z,16.17
2022-12-18T20:50:13.979Z,19.00
2022-12-18T20:52:41.177Z,22.48
2022-12-18T20:55:08.406Z,15.30
2022-12-18T20:57:35.743Z,13.15
2022-12-18T21:00:05.637Z,14.93
2022-12-18T21:02:32.965Z,10.70
2022-12-18T21:05:00.251Z,12.45
2022-12-18T21:07:27.599Z,11.43
2022-12-18T21:09:54.826Z,13.15
2022-12-18T21:12:34.868Z,7.13
2022-12-18T21:15:07.952Z,10.73
2022-12-18T21:17:44.147Z,8.52
2022-12-18T21:20:13.325Z,12.10
2022-12-18T21:22:45.248Z,11.77
2022-12-18T21:25:12.467Z,8.70
2022-12-18T21:27:39.678Z,19.95
2022-12-18T21:30:07.155Z,16.30
2022-12-18T21:32:34.403Z,14.43
2022-12-18T21:35:01.565Z,17.98
2022-12-18T21:37:28.779Z,12.95
2022-12-18T21:39:55.946Z,14.32
2022-12-18T21:42:42.120Z,16.92
2022-12-18T21:45:09.562Z,15.25
2022-12-18T21:47:36.742Z,11.65
2022-12-18T21:50:03.966Z,9.88
2022-12-18T21:52:32.771Z,8.50
2022-12-18T21:55:06.593Z,7.03
2022-12-18T21:57:36.203Z,8.35
2022-12-18T22:00:03.556Z,7.70
2022-12-18T22:02:39.434Z,7.25
2022-12-18T22:05:06.951Z,11.73
2022-12-18T22:07:34.436Z,8.18
2022-12-18T22:10:02.158Z,15.48
2022-12-18T22:12:44.087Z,45.03
2022-12-18T22:15:14.357Z,4.72
2022-12-18T22:17:48.485Z,6.15
2022-12-18T22:20:16.030Z,6.20
2022-12-18T22:22:43.331Z,4.65
2022-12-18T22:25:10.802Z,8.23
2022-12-18T22:27:38.032Z,2.78
2022-12-18T22:30:05.245Z,7.05
2022-12-18T22:32:32.631Z,3.88
2022-12-18T22:35:05.203Z,3.65
2022-12-18T22:37:33.368Z,3.90
2022-12-18T22:40:03.233Z,8.60
2022-12-18T22:42:31.241Z,11.13
2022-12-18T22:44:58.614Z,4.55
2022-12-18T22:47:29.733Z,3.47
2022-12-18T22:49:57.757Z,2.55
2022-12-18T22:52:26.864Z,2.90
2022-12-18T22:54:54.435Z,6.88
2022-12-18T22:57:21.929Z,8.32
2022-12-18T22:59:49.290Z,7.40
2022-12-18T23:02:17.879Z,3.92
2022-12-18T23:04:45.290Z,12.85
2022-12-18T23:07:12.730Z,8.48
2022-12-18T23:09:40.029Z,5.85
2022-12-18T23:12:07.269Z,11.48
2022-12-18T23:14:34.435Z,10.60
2022-12-18T23:17:01.631Z,7.63
2022-12-18T23:19:29.132Z,12.27
2022-12-18T23:21:58.842Z,6.82
2022-12-18T23:24:26.104Z,14.75
2022-12-18T23:26:53.233Z,8.80
2022-12-18T23:29:20.556Z,5.10
2022-12-18T23:31:47.822Z,11.85
2022-12-18T23:34:15.067Z,9.25
2022-12-18T23:36:46.068Z,11.65
2022-12-18T23:39:15.488Z,10.32
2022-12-18T23:41:56.373Z,11.00
2022-12-18T23:44:23.538Z,12.20
2022-12-18T23:46:50.864Z,6.22
2022-12-18T23:49:18.129Z,8.15
2022-12-18T23:51:45.493Z,6.38
2022-12-18T23:54:12.652Z,10.35
2022-12-18T23:56:39.951Z,4.97
2022-12-18T23:59:07.108Z,3.00
